Time,TemperatureF,DewpointF,PressureIn,WindDirection,WindDirectionDegrees,WindSpeedMPH,WindSpeedGustMPH,Humidity,HourlyPrecipIn,Conditions,Clouds,dailyrainin,SoftwareType,DateUTC
2013-04-07 00:00:00,57.2,46.4,29.28,NW,315,4.5,4.5,67,0.00,,,0.00,WUHU216HW,2013-04-07 05:00:00,
2013-04-07 00:05:00,57.2,46.4,29.28,NW,315,4.5,4.5,67,0.00,,,0.00,WUHU216HW,2013-04-07 05:05:00,
2013-04-07 00:30:00,56.0,45.2,29.29,NW,315,5.4,5.4,67,0.00,,,0.00,WUHU216HW,2013-04-07 05:30:00,
2013-04-07 00:35:00,56.0,45.2,29.29,NW,315,5.4,5.4,67,0.00,,,0.00,WUHU216HW,2013-04-07 05:35:00,
2013-04-07 01:00:00,54.9,44.1,29.29,NW,315,3.8,3.8,67,0.00,,,0.00,WUHU216HW,2013-04-07 06:00:00,
2013-04-07 01:05:00,54.9,44.1,29.29,NW,315,3.8,3.8,67,0.00,,,0.00,WUHU216HW,2013-04-07 06:05:00,
2013-04-07 01:30:00,53.6,43.8,29.31,West,270,6.0,6.0,69,0.00,,,0.00,WUHU216HW,2013-04-07 06:30:00,
2013-04-07 01:35:00,53.6,43.8,29.31,West,270,6.0,6.0,69,0.00,,,0.00,WUHU216HW,2013-04-07 06:35:00,
2013-04-07 02:00:00,52.6,43.1,29.31,West,270,7.6,7.6,70,0.00,,,0.00,WUHU216HW,2013-04-07 07:00:00,
2013-04-07 02:05:00,52.6,43.1,29.31,West,270,7.6,7.6,70,0.00,,,0.00,WUHU216HW,2013-04-07 07:05:00,
2013-04-07 02:30:00,51.5,42.1,29.32,WNW,293,4.7,4.7,70,0.00,,,0.00,WUHU216HW,2013-04-07 07:30:00,
2013-04-07 02:35:00,51.5,42.1,29.32,WNW,293,4.7,4.7,70,0.00,,,0.00,WUHU216HW,2013-04-07 07:35:00,
2013-04-07 03:00:00,50.4,42.0,29.33,West,270,5.4,5.4,73,0.00,,,0.00,WUHU216HW,2013-04-07 08:00:00,
2013-04-07 03:05:00,50.4,42.0,29.33,West,270,5.4,5.4,73,0.00,,,0.00,WUHU216HW,2013-04-07 08:05:00,
2013-04-07 03:30:00,49.5,41.1,29.35,West,270,2.0,2.0,73,0.00,,,0.00,WUHU216HW,2013-04-07 08:30:00,
2013-04-07 03:35:00,49.5,41.1,29.35,West,270,2.0,2.0,73,0.00,,,0.00,WUHU216HW,2013-04-07 08:35:00,
2013-04-07 04:00:00,48.8,40.8,29.35,WNW,293,4.0,4.0,74,0.00,,,0.00,WUHU216HW,2013-04-07 09:00:00,
2013-04-07 04:05:00,48.8,40.8,29.35,WNW,293,4.0,4.0,74,0.00,,,0.00,WUHU216HW,2013-04-07 09:05:00,
2013-04-07 04:30:00,48.2,40.2,29.37,WNW,293,1.8,1.8,74,0.00,,,0.00,WUHU216HW,2013-04-07 09:30:00,
2013-04-07 04:35:00,48.2,40.2,29.37,WNW,293,1.8,1.8,74,0.00,,,0.00,WUHU216HW,2013-04-07 09:35:00,
2013-04-07 05:00:00,47.7,39.1,29.39,WNW,293,1.3,1.3,72,0.00,,,0.00,WUHU216HW,2013-04-07 10:00:00,
2013-04-07 05:05:00,47.7,39.1,29.39,WNW,293,1.3,1.3,72,0.00,,,0.00,WUHU216HW,2013-04-07 10:05:00,
2013-04-07 05:30:00,46.6,38.1,29.40,WSW,248,0.0,0.0,72,0.00,,,0.00,WUHU216HW,2013-04-07 10:30:00,
2013-04-07 05:35:00,46.6,38.1,29.40,WSW,248,0.0,0.0,72,0.00,,,0.00,WUHU216HW,2013-04-07 10:35:00,
2013-04-07 06:00:00,45.9,37.7,29.42,WSW,248,0.0,0.0,73,0.00,,,0.00,WUHU216HW,2013-04-07 11:00:00,
2013-04-07 06:05:00,45.9,37.7,29.42,WSW,248,0.0,0.0,73,0.00,,,0.00,WUHU216HW,2013-04-07 11:05:00,
2013-04-07 06:30:00,45.0,37.2,29.43,WNW,293,0.0,0.0,74,0.00,,,0.00,WUHU216HW,2013-04-07 11:30:00,
2013-04-07 06:35:00,45.0,37.2,29.43,WNW,293,0.0,0.0,74,0.00,,,0.00,WUHU216HW,2013-04-07 11:35:00,
2013-04-07 06:59:00,45.2,37.7,29.45,WNW,293,1.1,1.1,75,0.00,,,0.00,WUHU216HW,2013-04-07 11:59:00,
2013-04-07 07:00:00,45.2,37.7,29.45,WNW,293,1.1,1.1,75,0.00,,,0.00,WUHU216HW,2013-04-07 12:00:00,
2013-04-07 07:05:00,45.2,37.7,29.45,WNW,293,1.1,1.1,75,0.00,,,0.00,WUHU216HW,2013-04-07 12:05:00,
2013-04-07 07:30:00,47.0,39.4,29.45,West,270,2.5,2.5,75,0.00,,,0.00,WUHU216HW,2013-04-07 12:30:00,
2013-04-07 07:35:00,47.0,39.4,29.45,West,270,2.5,2.5,75,0.00,,,0.00,WUHU216HW,2013-04-07 12:35:00,
2013-04-07 07:59:00,47.2,40.7,29.46,West,270,1.8,1.8,78,0.00,,,0.00,WUHU216HW,2013-04-07 12:59:00,
2013-04-07 08:00:00,47.2,40.7,29.46,West,270,1.8,1.8,78,0.00,,,0.00,WUHU216HW,2013-04-07 13:00:00,
2013-04-07 08:05:00,47.2,40.7,29.46,West,270,1.8,1.8,78,0.00,,,0.00,WUHU216HW,2013-04-07 13:05:00,
2013-04-07 08:30:00,49.1,41.9,29.47,WNW,293,3.4,3.4,76,0.00,,,0.00,WUHU216HW,2013-04-07 13:30:00,
2013-04-07 08:35:00,49.1,41.9,29.47,WNW,293,3.4,3.4,76,0.00,,,0.00,WUHU216HW,2013-04-07 13:35:00,
2013-04-07 09:00:00,50.4,42.4,29.47,WNW,293,1.8,1.8,74,0.00,,,0.00,WUHU216HW,2013-04-07 14:00:00,
2013-04-07 09:05:00,50.4,42.4,29.47,WNW,293,1.8,1.8,74,0.00,,,0.00,WUHU216HW,2013-04-07 14:05:00,
2013-04-07 09:30:00,52.4,43.3,29.47,West,270,0.9,0.9,71,0.00,,,0.00,WUHU216HW,2013-04-07 14:30:00,
2013-04-07 09:35:00,52.4,43.3,29.47,West,270,0.9,0.9,71,0.00,,,0.00,WUHU216HW,2013-04-07 14:35:00,
2013-04-07 10:00:00,54.2,43.0,29.48,WNW,293,1.3,1.3,66,0.00,,,0.00,WUHU216HW,2013-04-07 15:00:00,
2013-04-07 10:05:00,54.2,43.0,29.48,WNW,293,1.3,1.3,66,0.00,,,0.00,WUHU216HW,2013-04-07 15:05:00,
2013-04-07 10:30:00,56.3,43.9,29.49,NW,315,2.7,2.7,63,0.00,,,0.00,WUHU216HW,2013-04-07 15:30:00,
2013-04-07 10:35:00,56.3,43.9,29.49,NW,315,2.7,2.7,63,0.00,,,0.00,WUHU216HW,2013-04-07 15:35:00,
2013-04-07 11:00:00,58.3,44.6,29.50,NNW,338,1.8,1.8,60,0.00,,,0.00,WUHU216HW,2013-04-07 16:00:00,
2013-04-07 11:05:00,58.3,44.6,29.50,NNW,338,1.8,1.8,60,0.00,,,0.00,WUHU216HW,2013-04-07 16:05:00,
2013-04-07 11:30:00,61.2,45.8,29.50,West,270,3.1,3.1,57,0.00,,,0.00,WUHU216HW,2013-04-07 16:30:00,
2013-04-07 11:35:00,61.2,45.8,29.50,West,270,3.1,3.1,57,0.00,,,0.00,WUHU216HW,2013-04-07 16:35:00,
2013-04-07 11:59:00,62.3,44.9,29.50,WSW,248,2.5,2.5,53,0.00,,,0.00,WUHU216HW,2013-04-07 16:59:00,
2013-04-07 12:00:00,62.3,44.9,29.50,WSW,248,2.5,2.5,53,0.00,,,0.00,WUHU216HW,2013-04-07 17:00:00,
2013-04-07 12:05:00,62.3,44.9,29.50,WSW,248,2.5,2.5,53,0.00,,,0.00,WUHU216HW,2013-04-07 17:05:00,
2013-04-07 12:30:00,63.0,44.6,29.49,WNW,293,3.1,3.1,51,0.00,,,0.00,WUHU216HW,2013-04-07 17:30:00,
2013-04-07 12:35:00,63.0,44.6,29.49,WNW,293,3.1,3.1,51,0.00,,,0.00,WUHU216HW,2013-04-07 17:35:00,
2013-04-07 13:00:00,64.4,44.2,29.48,ESE,113,0.7,0.7,48,0.00,,,0.00,WUHU216HW,2013-04-07 18:00:00,
2013-04-07 13:05:00,64.4,44.2,29.48,ESE,113,0.7,0.7,48,0.00,,,0.00,WUHU216HW,2013-04-07 18:05:00,
2013-04-07 13:30:00,65.2,44.9,29.48,SSE,158,1.1,1.1,48,0.00,,,0.00,WUHU216HW,2013-04-07 18:30:00,
2013-04-07 13:35:00,65.2,44.9,29.48,SSE,158,1.1,1.1,48,0.00,,,0.00,WUHU216HW,2013-04-07 18:35:00,
2013-04-07 14:00:00,67.7,45.5,29.48,SW,225,2.0,2.0,45,0.00,,,0.00,WUHU216HW,2013-04-07 19:00:00,
2013-04-07 14:05:00,67.7,45.5,29.48,SW,225,2.0,2.0,45,0.00,,,0.00,WUHU216HW,2013-04-07 19:05:00,
2013-04-07 14:30:00,68.0,45.2,29.47,South,180,3.4,3.4,44,0.00,,,0.00,WUHU216HW,2013-04-07 19:30:00,
2013-04-07 14:35:00,68.0,45.2,29.47,South,180,3.4,3.4,44,0.00,,,0.00,WUHU216HW,2013-04-07 19:35:00,
2013-04-07 15:00:00,70.4,47.4,29.47,SSE,158,0.4,0.4,44,0.00,,,0.00,WUHU216HW,2013-04-07 20:00:00,
2013-04-07 15:01:00,70.4,47.4,29.47,SSE,158,0.4,0.4,44,0.00,,,0.00,WUHU216HW,2013-04-07 20:01:00,
2013-04-07 15:06:00,70.4,47.4,29.47,SSE,158,0.4,0.4,44,0.00,,,0.00,WUHU216HW,2013-04-07 20:06:00,
2013-04-07 15:30:00,70.0,45.8,29.46,South,180,0.0,0.0,42,0.00,,,0.00,WUHU216HW,2013-04-07 20:30:00,
2013-04-07 15:35:00,70.0,45.8,29.46,South,180,0.0,0.0,42,0.00,,,0.00,WUHU216HW,2013-04-07 20:35:00,
2013-04-07 16:00:00,71.6,46.7,29.46,NNW,338,0.0,0.0,41,0.00,,,0.00,WUHU216HW,2013-04-07 21:00:00,
2013-04-07 16:05:00,71.6,46.7,29.46,NNW,338,0.0,0.0,41,0.00,,,0.00,WUHU216HW,2013-04-07 21:05:00,
2013-04-07 16:30:00,71.3,45.7,29.45,SE,135,2.0,2.0,40,0.00,,,0.00,WUHU216HW,2013-04-07 21:30:00,
2013-04-07 16:35:00,71.3,45.7,29.45,SE,135,2.0,2.0,40,0.00,,,0.00,WUHU216HW,2013-04-07 21:35:00,
2013-04-07 16:59:00,72.2,47.2,29.44,South,180,1.3,1.3,41,0.00,,,0.00,WUHU216HW,2013-04-07 21:59:00,
2013-04-07 17:00:00,72.2,47.2,29.44,South,180,1.3,1.3,41,0.00,,,0.00,WUHU216HW,2013-04-07 22:00:00,
2013-04-07 17:05:00,72.2,47.2,29.44,South,180,1.3,1.3,41,0.00,,,0.00,WUHU216HW,2013-04-07 22:05:00,
2013-04-07 17:30:00,72.5,46.2,29.44,SSE,158,1.6,1.6,39,0.00,,,0.00,WUHU216HW,2013-04-07 22:30:00,
2013-04-07 17:35:00,72.5,46.2,29.44,SSE,158,1.6,1.6,39,0.00,,,0.00,WUHU216HW,2013-04-07 22:35:00,
2013-04-07 18:00:00,72.4,46.0,29.42,ENE,68,0.9,0.9,39,0.00,,,0.00,WUHU216HW,2013-04-07 23:00:00,
2013-04-07 18:05:00,72.4,46.0,29.42,ENE,68,0.9,0.9,39,0.00,,,0.00,WUHU216HW,2013-04-07 23:05:00,
2013-04-07 18:30:00,74.3,46.3,29.42,ESE,113,1.8,1.8,37,0.00,,,0.00,WUHU216HW,2013-04-07 23:30:00,
2013-04-07 18:35:00,74.3,46.3,29.42,ESE,113,1.8,1.8,37,0.00,,,0.00,WUHU216HW,2013-04-07 23:35:00,
2013-04-07 19:00:00,71.3,45.0,29.42,ESE,113,1.1,1.1,39,0.00,,,0.00,WUHU216HW,2013-04-08 00:00:00,
2013-04-07 19:05:00,71.3,45.0,29.42,ESE,113,1.1,1.1,39,0.00,,,0.00,WUHU216HW,2013-04-08 00:05:00,
2013-04-07 19:30:00,69.1,43.8,29.42,East,90,0.4,0.4,40,0.00,,,0.00,WUHU216HW,2013-04-08 00:30:00,
2013-04-07 19:35:00,69.1,43.8,29.42,East,90,0.4,0.4,40,0.00,,,0.00,WUHU216HW,2013-04-08 00:35:00,
2013-04-07 20:00:00,66.6,42.1,29.42,ENE,68,0.9,0.9,41,0.00,,,0.00,WUHU216HW,2013-04-08 01:00:00,
2013-04-07 20:05:00,66.6,42.1,29.42,ENE,68,0.9,0.9,41,0.00,,,0.00,WUHU216HW,2013-04-08 01:05:00,
2013-04-07 20:29:00,64.4,42.0,29.41,East,90,0.4,0.4,44,0.00,,,0.00,WUHU216HW,2013-04-08 01:29:00,
2013-04-07 20:30:00,64.4,42.0,29.41,East,90,0.4,0.4,44,0.00,,,0.00,WUHU216HW,2013-04-08 01:30:00,
2013-04-07 20:35:00,64.4,42.0,29.41,East,90,0.4,0.4,44,0.00,,,0.00,WUHU216HW,2013-04-08 01:35:00,
2013-04-07 20:59:00,63.0,41.8,29.41,ESE,113,1.8,1.8,46,0.00,,,0.00,WUHU216HW,2013-04-08 01:59:00,
2013-04-07 21:00:00,63.0,41.8,29.41,ESE,113,1.8,1.8,46,0.00,,,0.00,WUHU216HW,2013-04-08 02:00:00,
2013-04-07 21:05:00,63.0,41.8,29.41,ESE,113,1.8,1.8,46,0.00,,,0.00,WUHU216HW,2013-04-08 02:05:00,
2013-04-07 21:29:00,61.6,41.0,29.42,NE,45,1.1,1.1,47,0.00,,,0.00,WUHU216HW,2013-04-08 02:29:00,
2013-04-07 21:30:00,61.6,41.0,29.42,NE,45,1.1,1.1,47,0.00,,,0.00,WUHU216HW,2013-04-08 02:30:00,
2013-04-07 21:35:00,61.6,41.0,29.42,NE,45,1.1,1.1,47,0.00,,,0.00,WUHU216HW,2013-04-08 02:35:00,
2013-04-07 21:59:00,60.5,40.7,29.42,ESE,113,1.8,1.8,48,0.00,,,0.00,WUHU216HW,2013-04-08 02:59:00,
2013-04-07 22:00:00,60.5,40.7,29.42,ESE,113,1.8,1.8,48,0.00,,,0.00,WUHU216HW,2013-04-08 03:00:00,
2013-04-07 22:05:00,60.5,40.7,29.42,ESE,113,1.8,1.8,48,0.00,,,0.00,WUHU216HW,2013-04-08 03:05:00,
2013-04-07 22:29:00,58.9,40.3,29.40,SE,135,3.4,3.4,50,0.00,,,0.00,WUHU216HW,2013-04-08 03:29:00,
2013-04-07 22:30:00,58.9,40.3,29.40,SE,135,3.4,3.4,50,0.00,,,0.00,WUHU216HW,2013-04-08 03:30:00,
2013-04-07 22:35:00,58.9,40.3,29.40,SE,135,3.4,3.4,50,0.00,,,0.00,WUHU216HW,2013-04-08 03:35:00,
2013-04-07 22:59:00,58.0,40.0,29.39,SE,135,3.6,3.6,51,0.00,,,0.00,WUHU216HW,2013-04-08 03:59:00,
2013-04-07 23:00:00,58.0,40.0,29.39,SE,135,3.6,3.6,51,0.00,,,0.00,WUHU216HW,2013-04-08 04:00:00,
2013-04-07 23:05:00,58.0,40.0,29.39,SE,135,3.6,3.6,51,0.00,,,0.00,WUHU216HW,2013-04-08 04:05:00,
2013-04-07 23:29:00,57.2,39.8,29.39,SSE,158,1.6,1.6,52,0.00,,,0.00,WUHU216HW,2013-04-08 04:29:00,
2013-04-07 23:30:00,57.2,39.8,29.39,SSE,158,1.6,1.6,52,0.00,,,0.00,WUHU216HW,2013-04-08 04:30:00,
2013-04-07 23:35:00,57.2,39.8,29.39,SSE,158,1.6,1.6,52,0.00,,,0.00,WUHU216HW,2013-04-08 04:35:00,
2013-04-07 23:59:00,57.2,40.3,29.39,NNE,23,1.8,1.8,53,0.00,,,0.00,WUHU216HW,2013-04-08 04:59:00,